createdAt,value
2022-12-15T00:01:34.227Z,21.40
2022-12-15T00:04:38.334Z,24.45
2022-12-15T00:07:42.341Z,21.77
2022-12-15T00:10:47.029Z,20.73
2022-12-15T00:13:50.931Z,20.67
2022-12-15T00:16:55.413Z,23.90
2022-12-15T00:19:59.566Z,23.77
2022-12-15T00:23:03.547Z,22.43
2022-12-15T00:26:07.530Z,25.77
2022-12-15T00:29:11.502Z,26.75
2022-12-15T00:32:15.256Z,25.15
2022-12-15T00:35:19.147Z,24.00
2022-12-15T00:38:32.499Z,23.63
2022-12-15T00:41:18.928Z,24.40
2022-12-15T00:44:04.584Z,22.60
2022-12-15T00:46:56.340Z,21.80
2022-12-15T00:50:00.527Z,24.88
2022-12-15T00:53:04.653Z,22.38
2022-12-15T00:56:08.798Z,26.15
2022-12-15T00:59:13.566Z,22.05
2022-12-15T01:02:18.243Z,27.17
2022-12-15T01:05:22.900Z,25.42
2022-12-15T01:08:26.998Z,22.27
2022-12-15T01:11:31.551Z,23.65
2022-12-15T01:14:35.428Z,24.90
2022-12-15T01:17:39.629Z,24.85
2022-12-15T01:20:25.529Z,24.02
2022-12-15T01:23:10.818Z,21.83
2022-12-15T01:25:56.154Z,24.02
2022-12-15T01:28:41.588Z,23.90
2022-12-15T01:31:26.973Z,22.25
2022-12-15T01:34:12.444Z,25.35
2022-12-15T01:36:57.889Z,24.75
2022-12-15T01:40:02.417Z,22.25
2022-12-15T01:42:47.797Z,23.02
2022-12-15T01:45:41.964Z,21.40
2022-12-15T01:48:30.143Z,26.80
2022-12-15T01:51:25.928Z,21.63
2022-12-15T01:54:16.902Z,19.95
2022-12-15T01:57:06.978Z,22.92
2022-12-15T02:00:01.979Z,22.52
2022-12-15T02:02:47.922Z,20.77
2022-12-15T02:05:35.118Z,21.00
2022-12-15T02:08:21.015Z,24.33
2022-12-15T02:11:20.080Z,20.38
2022-12-15T02:14:10.875Z,22.33
2022-12-15T02:17:25.538Z,20.77
2022-12-15T02:20:47.278Z,21.50
2022-12-15T02:24:04.563Z,22.58
2022-12-15T02:27:13.486Z,23.77
2022-12-15T02:30:11.691Z,19.08
2022-12-15T02:33:11.390Z,22.80
2022-12-15T02:36:04.339Z,26.08
2022-12-15T02:38:50.088Z,19.88
2022-12-15T02:41:39.133Z,21.75
2022-12-15T02:44:33.541Z,20.90
2022-12-15T02:47:46.085Z,21.50
2022-12-15T02:50:50.010Z,23.05
2022-12-15T02:54:04.506Z,24.30
2022-12-15T02:57:11.357Z,24.27
2022-12-15T03:00:02.259Z,21.15
2022-12-15T03:02:51.770Z,22.40
2022-12-15T03:05:37.818Z,22.77
2022-12-15T03:08:23.835Z,22.85
2022-12-15T03:11:09.221Z,22.50
2022-12-15T03:13:55.056Z,24.10
2022-12-15T03:16:40.419Z,26.25
2022-12-15T03:19:25.893Z,24.00
2022-12-15T03:22:11.526Z,23.38
2022-12-15T03:24:57.316Z,22.95
2022-12-15T03:27:44.215Z,23.42
2022-12-15T03:30:29.518Z,24.95
2022-12-15T03:33:14.908Z,24.45
2022-12-15T03:36:00.732Z,23.08
2022-12-15T03:38:46.128Z,22.07
2022-12-15T03:41:31.500Z,24.75
2022-12-15T03:44:16.835Z,26.25
2022-12-15T03:47:03.824Z,20.40
2022-12-15T03:49:49.391Z,21.30
2022-12-15T03:52:35.998Z,22.00
2022-12-15T03:55:22.645Z,21.53
2022-12-15T03:58:08.002Z,22.67
2022-12-15T04:00:53.596Z,18.17
2022-12-15T04:03:39.528Z,18.50
2022-12-15T04:06:24.900Z,20.93
2022-12-15T04:09:10.223Z,18.13
2022-12-15T04:11:55.496Z,17.95
2022-12-15T04:14:42.448Z,16.10
2022-12-15T04:17:27.938Z,18.70
2022-12-15T04:20:13.273Z,16.75
2022-12-15T04:22:59.558Z,17.58
2022-12-15T04:26:03.605Z,18.15
2022-12-15T04:29:07.346Z,17.63
2022-12-15T04:32:12.038Z,18.05
2022-12-15T04:35:15.824Z,18.40
2022-12-15T04:38:20.425Z,18.45
2022-12-15T04:41:24.714Z,14.85
2022-12-15T04:44:30.184Z,18.98
2022-12-15T04:47:34.221Z,17.63
2022-12-15T04:50:38.039Z,15.70
2022-12-15T04:53:42.198Z,16.73
2022-12-15T04:56:46.373Z,17.42
2022-12-15T04:59:53.905Z,17.08
2022-12-15T05:02:57.831Z,18.83
2022-12-15T05:06:01.968Z,19.02
2022-12-15T05:09:05.927Z,14.38
2022-12-15T05:12:10.084Z,18.77
2022-12-15T05:15:14.102Z,15.80
2022-12-15T05:18:17.999Z,16.10
2022-12-15T05:21:22.062Z,16.50
2022-12-15T05:24:26.558Z,15.27
2022-12-15T05:27:30.766Z,14.02
2022-12-15T05:30:34.874Z,17.35
2022-12-15T05:33:20.602Z,16.42
2022-12-15T05:36:06.611Z,17.40
2022-12-15T05:38:52.627Z,16.23
2022-12-15T05:41:38.238Z,15.80
2022-12-15T05:44:24.927Z,18.33
2022-12-15T05:47:11.728Z,17.83
2022-12-15T05:49:57.098Z,18.55
2022-12-15T05:52:46.290Z,14.57
2022-12-15T05:55:34.761Z,16.33
2022-12-15T05:58:20.234Z,12.52
2022-12-15T06:01:09.269Z,16.10
2022-12-15T06:03:55.105Z,12.40
2022-12-15T06:06:41.392Z,18.30
2022-12-15T06:09:26.851Z,17.65
2022-12-15T06:12:12.258Z,15.03
2022-12-15T18:28:31.581Z,15.25
2022-12-15T18:31:20.006Z,11.65
2022-12-15T18:34:12.730Z,17.15
2022-12-15T18:36:58.016Z,11.55
2022-12-15T18:39:43.675Z,11.02
2022-12-15T18:42:29.291Z,12.38
2022-12-15T18:45:25.870Z,12.10
2022-12-15T18:48:19.027Z,11.13
2022-12-15T18:51:20.197Z,11.35
2022-12-15T18:54:06.023Z,13.00
2022-12-15T18:56:51.633Z,13.20
2022-12-15T18:59:37.157Z,14.25
2022-12-15T19:02:22.732Z,12.98
2022-12-15T19:05:27.084Z,17.00
2022-12-15T19:08:18.237Z,14.67
2022-12-15T19:11:21.083Z,14.27
2022-12-15T19:14:33.347Z,13.27
2022-12-15T19:17:40.033Z,12.07
2022-12-15T19:20:44.023Z,12.77
2022-12-15T19:23:30.002Z,15.57
2022-12-15T19:26:15.587Z,12.80
2022-12-15T19:29:01.134Z,11.10
2022-12-15T19:31:46.950Z,13.07
2022-12-15T19:34:33.410Z,15.35
2022-12-15T19:37:18.845Z,16.70
2022-12-15T19:40:06.167Z,16.23
2022-12-15T19:42:52.860Z,15.68
2022-12-15T19:45:40.867Z,15.82
2022-12-15T19:48:26.301Z,14.82
2022-12-15T19:51:14.626Z,14.10
2022-12-15T19:54:00.927Z,15.40
2022-12-15T19:56:47.389Z,14.15
2022-12-15T19:59:32.951Z,16.58
2022-12-15T20:02:20.479Z,15.60
2022-12-15T20:05:06.307Z,13.27
2022-12-15T20:07:53.249Z,12.45
2022-12-15T20:10:39.056Z,14.20
2022-12-15T20:13:26.366Z,12.10
2022-12-15T20:16:11.740Z,14.40
2022-12-15T20:18:57.145Z,16.35
2022-12-15T20:21:42.812Z,16.08
2022-12-15T20:24:29.934Z,14.15
2022-12-15T20:27:18.078Z,13.07
2022-12-15T20:30:04.316Z,14.47
2022-12-15T20:32:49.605Z,14.53
2022-12-15T20:35:36.445Z,13.93
2022-12-15T20:38:32.389Z,12.02
2022-12-15T20:41:21.606Z,14.88
2022-12-15T20:44:12.935Z,12.50
2022-12-15T20:46:58.400Z,12.37
2022-12-15T20:49:44.839Z,15.88
2022-12-15T20:52:30.411Z,15.70
2022-12-15T20:55:16.074Z,20.85
2022-12-15T20:58:01.445Z,12.30
2022-12-15T21:00:48.431Z,14.60
2022-12-15T21:03:37.202Z,13.83
2022-12-15T21:06:25.089Z,17.02
2022-12-15T21:09:14.493Z,14.43
2022-12-15T21:12:03.182Z,13.18
2022-12-15T21:14:54.145Z,12.73
2022-12-15T21:17:41.951Z,12.52
2022-12-15T21:20:27.517Z,12.65
2022-12-15T21:23:19.584Z,15.45
2022-12-15T21:26:05.057Z,13.30
2022-12-15T21:28:54.214Z,13.23
2022-12-15T21:31:40.138Z,15.10
2022-12-15T21:34:25.541Z,13.70
2022-12-15T21:37:26.723Z,15.43
2022-12-15T21:40:23.963Z,13.53
2022-12-15T21:43:11.560Z,15.18
2022-12-15T21:45:57.911Z,15.38
2022-12-15T21:49:02.945Z,15.77
2022-12-15T21:52:00.004Z,14.80
2022-12-15T21:54:45.656Z,14.75
2022-12-15T21:57:30.952Z,13.87
2022-12-15T22:00:18.046Z,14.82
2022-12-15T22:03:03.899Z,13.25
2022-12-15T22:05:49.554Z,16.00
2022-12-15T22:08:35.842Z,14.48
2022-12-15T22:11:30.001Z,14.40
2022-12-15T22:14:32.967Z,13.30
2022-12-15T22:17:20.918Z,14.18
2022-12-15T22:20:14.933Z,14.77
2022-12-15T22:23:00.210Z,13.73
2022-12-15T22:25:47.406Z,16.58
2022-12-15T22:28:33.949Z,15.05
2022-12-15T22:31:19.639Z,14.82
2022-12-15T22:34:17.156Z,12.67
2022-12-15T22:37:02.553Z,17.10
2022-12-15T22:39:49.438Z,15.43
2022-12-15T22:42:39.634Z,16.23
2022-12-15T22:45:25.568Z,15.63
2022-12-15T22:48:14.488Z,15.45
2022-12-15T22:51:01.115Z,15.00
2022-12-15T22:53:46.851Z,13.32
2022-12-15T22:56:37.751Z,13.80
2022-12-15T22:59:30.107Z,16.77
2022-12-15T23:02:15.696Z,15.15
2022-12-15T23:05:01.499Z,13.73
2022-12-15T23:07:47.005Z,11.90
2022-12-15T23:10:51.101Z,13.68
2022-12-15T23:13:37.410Z,14.85
2022-12-15T23:16:22.821Z,13.97
2022-12-15T23:19:08.896Z,13.77
2022-12-15T23:21:54.694Z,16.30
2022-12-15T23:24:40.676Z,15.15
2022-12-15T23:27:26.237Z,15.10
2022-12-15T23:30:12.723Z,14.02
2022-12-15T23:32:58.047Z,15.80
2022-12-15T23:35:43.784Z,13.63
2022-12-15T23:38:29.526Z,15.48
2022-12-15T23:41:17.170Z,14.60
2022-12-15T23:44:02.803Z,14.60
2022-12-15T23:46:48.582Z,13.30
2022-12-15T23:49:34.360Z,12.15
2022-12-15T23:52:19.858Z,12.93
2022-12-15T23:55:07.930Z,13.30
2022-12-15T23:57:57.799Z,12.68
